Time;durP1;ratioP1;P1;durP2;ratioP2;P2;SDS_P1;SDS_P2;PMS_P1;PMS_P2;Temp;Humidity;BMP_temperature;BMP_pressure;BME280_temperature;BME280_humidity;BME280_pressure;Samples;Min_cycle;Max_cycle;Signal;HPM_P1;HPM_P2
2023/01/28 00:01:34;;;;;;;4.25;3.80;;;3.70;99.90;;;;;;5087019;28;20589;-78
2023/01/28 00:04:00;;;;;;;3.55;3.25;;;3.60;99.90;;;;;;5087919;28;20292;-77
2023/01/28 00:06:27;;;;;;;3.80;3.40;;;3.70;99.90;;;;;;5081650;28;20301;-78
2023/01/28 00:08:54;;;;;;;4.18;3.40;;;3.70;99.90;;;;;;5079453;28;20344;-78
2023/01/28 00:11:22;;;;;;;5.70;3.42;;;3.70;99.90;;;;;;5084630;28;21007;-77
2023/01/28 00:13:51;;;;;;;8.95;3.50;;;3.60;99.90;;;;;;5091133;28;20316;-77
2023/01/28 00:16:21;;;;;;;3.90;3.20;;;3.50;99.90;;;;;;5084904;28;20233;-77
2023/01/28 00:18:48;;;;;;;5.65;2.78;;;3.40;99.90;;;;;;5087496;28;20198;-78
2023/01/28 00:21:15;;;;;;;2.90;2.35;;;3.50;99.90;;;;;;5078936;28;20247;-77
2023/01/28 00:23:47;;;;;;;3.47;2.40;;;3.60;99.90;;;;;;5081821;28;20199;-78
2023/01/28 00:26:15;;;;;;;2.75;2.35;;;3.70;99.90;;;;;;5085352;28;20307;-79
2023/01/28 00:28:43;;;;;;;7.68;2.60;;;3.70;99.90;;;;;;5081984;28;20286;-76
2023/01/28 00:31:12;;;;;;;4.65;2.88;;;3.70;99.90;;;;;;5091933;28;20289;-77
2023/01/28 00:33:40;;;;;;;4.18;2.20;;;3.60;99.90;;;;;;5086938;28;20298;-77
2023/01/28 00:36:08;;;;;;;2.88;2.50;;;3.60;99.90;;;;;;5073734;28;20319;-77
2023/01/28 00:38:35;;;;;;;3.60;2.47;;;3.70;99.90;;;;;;5090654;28;20302;-79
2023/01/28 00:41:08;;;;;;;3.15;2.63;;;3.70;99.90;;;;;;5082989;28;20213;-77
2023/01/28 00:43:35;;;;;;;2.78;1.90;;;3.60;99.90;;;;;;5081875;28;20194;-79
2023/01/28 00:46:02;;;;;;;5.78;2.55;;;3.60;99.90;;;;;;5073652;28;20247;-77
2023/01/28 00:48:28;;;;;;;5.20;2.63;;;3.70;99.90;;;;;;5079928;28;20234;-77
2023/01/28 00:50:57;;;;;;;3.92;2.03;;;3.60;99.90;;;;;;5083454;28;20665;-76
2023/01/28 00:53:24;;;;;;;3.53;3.22;;;3.70;99.90;;;;;;5085401;28;20222;-76
2023/01/28 00:55:51;;;;;;;3.83;2.13;;;3.60;99.90;;;;;;5079406;28;20230;-76
2023/01/28 00:58:19;;;;;;;4.68;2.90;;;3.60;99.90;;;;;;5079815;28;20218;-79
2023/01/28 01:00:45;;;;;;;9.20;2.80;;;3.70;99.90;;;;;;5090169;28;20298;-78
2023/01/28 01:03:12;;;;;;;4.03;2.85;;;3.70;99.90;;;;;;5086583;28;20195;-77
2023/01/28 01:05:40;;;;;;;3.60;2.30;;;3.50;99.90;;;;;;5076475;28;20567;-78
2023/01/28 01:08:08;;;;;;;2.83;2.15;;;3.60;99.90;;;;;;5072129;28;20222;-78
2023/01/28 01:10:37;;;;;;;2.90;2.00;;;3.60;99.90;;;;;;5078589;28;20290;-78
2023/01/28 01:13:04;;;;;;;6.30;3.00;;;3.60;99.90;;;;;;5084398;28;20250;-78
2023/01/28 01:15:31;;;;;;;7.22;3.42;;;3.60;99.90;;;;;;5077482;28;20352;-78
2023/01/28 01:17:58;;;;;;;2.65;1.83;;;3.60;99.90;;;;;;5067286;28;20203;-78
2023/01/28 01:20:27;;;;;;;4.22;2.08;;;3.60;99.90;;;;;;5086761;28;20237;-78
2023/01/28 01:22:54;;;;;;;3.50;2.10;;;3.60;99.90;;;;;;5080987;28;20712;-79
2023/01/28 01:25:23;;;;;;;6.53;1.80;;;3.60;99.90;;;;;;5078104;28;20305;-79
2023/01/28 01:27:50;;;;;;;8.18;2.88;;;3.70;99.90;;;;;;5079007;28;20205;-79
2023/01/28 01:30:17;;;;;;;2.10;1.90;;;3.40;99.90;;;;;;5080579;28;20213;-76
2023/01/28 01:32:44;;;;;;;5.45;1.85;;;3.40;99.90;;;;;;5088608;28;20210;-78
2023/01/28 01:35:11;;;;;;;2.97;2.38;;;3.40;99.90;;;;;;5077717;28;20305;-79
2023/01/28 01:37:38;;;;;;;2.75;2.00;;;3.40;99.90;;;;;;5088070;28;20229;-78
2023/01/28 01:40:06;;;;;;;2.95;1.92;;;3.30;99.90;;;;;;5081948;28;20255;-79
2023/01/28 01:42:34;;;;;;;2.33;1.73;;;3.30;99.90;;;;;;5083701;28;20289;-78
2023/01/28 01:45:04;;;;;;;6.55;2.40;;;3.40;99.90;;;;;;5088543;28;20301;-78
2023/01/28 01:47:47;;;;;;;4.70;3.00;;;3.40;99.90;;;;;;5083196;28;20195;-77
2023/01/28 01:50:21;;;;;;;4.50;2.50;;;3.20;99.90;;;;;;5087671;28;20288;-77
2023/01/28 01:52:52;;;;;;;4.35;2.15;;;3.30;99.90;;;;;;5082818;28;20210;-77
2023/01/28 01:55:21;;;;;;;7.22;2.47;;;3.40;99.90;;;;;;5089711;28;20313;-77
2023/01/28 01:57:51;;;;;;;3.90;1.77;;;3.40;99.90;;;;;;5086770;28;20230;-78
2023/01/28 02:00:19;;;;;;;2.28;1.98;;;3.60;99.90;;;;;;5092435;28;20289;-79
2023/01/28 02:02:48;;;;;;;3.95;1.92;;;3.50;99.90;;;;;;5084617;28;20199;-77
2023/01/28 02:05:18;;;;;;;2.22;2.03;;;3.40;99.90;;;;;;5082078;28;20263;-78
2023/01/28 02:07:46;;;;;;;3.85;2.35;;;3.40;99.90;;;;;;5085161;28;20560;-78
2023/01/28 02:10:14;;;;;;;4.15;2.20;;;3.40;99.90;;;;;;5084191;28;20298;-78
2023/01/28 02:12:45;;;;;;;2.22;2.03;;;3.40;99.90;;;;;;5091524;28;20571;-77
2023/01/28 02:15:17;;;;;;;4.93;3.10;;;3.50;99.90;;;;;;5072453;28;20220;-76
2023/01/28 02:17:44;;;;;;;3.08;2.10;;;3.40;99.90;;;;;;5101422;22;20255;-82
2023/01/28 02:20:13;;;;;;;2.10;1.90;;;3.50;99.90;;;;;;5076590;28;20255;-81
2023/01/28 02:23:16;;;;;;;2.80;2.60;;;3.50;99.90;;;;;;5091445;28;20235;-82
2023/01/28 02:26:14;;;;;;;2.50;2.22;;;3.60;99.90;;;;;;5080756;28;20599;-82
2023/01/28 02:28:49;;;;;;;4.22;2.20;;;3.50;99.90;;;;;;5069681;28;20285;-82
2023/01/28 02:31:20;;;;;;;3.30;2.50;;;3.40;99.90;;;;;;5065534;28;20304;-81
2023/01/28 02:33:56;;;;;;;5.32;2.95;;;3.50;99.90;;;;;;5059836;28;20574;-80
2023/01/28 02:36:30;;;;;;;3.05;2.58;;;3.50;99.90;;;;;;5066314;28;20234;-82
2023/01/28 02:39:02;;;;;;;3.45;2.45;;;3.50;99.90;;;;;;5067561;28;20262;-81
2023/01/28 02:41:35;;;;;;;4.25;2.92;;;3.50;99.90;;;;;;5078353;28;20225;-84
2023/01/28 02:44:04;;;;;;;4.75;2.72;;;3.40;99.90;;;;;;5075756;28;20184;-83
2023/01/28 02:49:26;;;;;;;4.18;2.75;;;3.30;99.90;;;;;;5058994;28;20198;-81
2023/01/28 02:52:08;;;;;;;3.58;2.05;;;3.30;99.90;;;;;;5053208;28;20215;-81
2023/01/28 02:54:41;;;;;;;2.88;2.58;;;3.40;99.90;;;;;;5053208;28;20286;-81
2023/01/28 02:57:23;;;;;;;4.55;3.03;;;3.40;99.90;;;;;;5056066;28;20235;-82
2023/01/28 03:00:00;;;;;;;3.90;2.70;;;3.40;99.90;;;;;;5068391;28;20274;-82
2023/01/28 03:02:34;;;;;;;3.53;2.40;;;3.30;99.90;;;;;;5071361;28;20285;-83
2023/01/28 03:05:06;;;;;;;6.05;2.30;;;3.50;99.90;;;;;;5079140;28;20540;-82
2023/01/28 03:07:37;;;;;;;5.43;2.97;;;3.50;99.90;;;;;;5068433;28;20223;-80
2023/01/28 03:10:06;;;;;;;3.30;3.00;;;3.40;99.90;;;;;;5061219;28;20204;-81
2023/01/28 03:37:53;;;;;;;5.20;2.47;;;3.30;99.90;;;;;;5076081;28;20222;-83
2023/01/28 03:40:20;;;;;;;5.05;2.78;;;3.30;99.90;;;;;;5064598;28;20207;-82
2023/01/28 03:42:47;;;;;;;6.25;2.90;;;3.40;99.90;;;;;;5088110;28;20210;-82
2023/01/28 03:45:13;;;;;;;4.68;3.00;;;3.40;99.90;;;;;;5071878;28;20267;-82
2023/01/28 03:47:43;;;;;;;6.05;3.58;;;3.40;99.90;;;;;;5062949;28;20224;-82
2023/01/28 03:50:10;;;;;;;6.07;3.28;;;3.40;99.90;;;;;;5057996;28;20236;-81
2023/01/28 03:52:37;;;;;;;7.03;3.90;;;3.40;99.90;;;;;;5076114;28;20202;-82
2023/01/28 03:55:12;;;;;;;5.50;3.55;;;3.40;99.90;;;;;;5077707;28;20211;-82
2023/01/28 03:57:40;;;;;;;5.35;3.17;;;3.40;99.90;;;;;;5062671;28;20223;-81
2023/01/28 04:00:09;;;;;;;4.00;3.15;;;3.30;99.90;;;;;;5072088;28;20224;-82
2023/01/28 04:02:38;;;;;;;4.70;3.05;;;3.20;99.90;;;;;;5062676;28;20214;-82
2023/01/28 04:05:11;;;;;;;11.23;4.50;;;3.20;99.90;;;;;;5088206;28;20222;-82
2023/01/28 04:07:38;;;;;;;4.60;3.58;;;3.20;99.90;;;;;;5076996;28;20224;-81
2023/01/28 04:10:07;;;;;;;4.07;2.95;;;3.10;99.90;;;;;;5086806;28;20282;-82
2023/01/28 04:12:36;;;;;;;5.82;4.50;;;3.00;99.90;;;;;;5058661;28;20213;-80
2023/01/28 04:15:14;;;;;;;4.55;4.10;;;3.00;99.90;;;;;;5072935;28;20245;-80
2023/01/28 04:17:45;;;;;;;6.55;5.07;;;3.00;99.90;;;;;;5080867;28;20299;-83
2023/01/28 04:20:15;;;;;;;6.90;4.90;;;3.00;99.90;;;;;;5077066;28;20234;-83
2023/01/28 04:22:42;;;;;;;6.63;5.65;;;3.10;99.90;;;;;;5082238;28;20256;-83
2023/01/28 04:25:10;;;;;;;6.53;5.90;;;3.10;99.90;;;;;;5087931;28;20208;-83
2023/01/28 04:27:37;;;;;;;8.50;7.40;;;3.00;99.90;;;;;;5083631;28;20207;-84
2023/01/28 04:30:04;;;;;;;20.08;9.73;;;3.00;99.90;;;;;;5084997;28;20222;-84
2023/01/28 04:32:31;;;;;;;9.35;8.00;;;2.90;99.90;;;;;;5084570;28;20207;-80
2023/01/28 04:34:58;;;;;;;9.68;7.65;;;2.90;99.90;;;;;;5083331;28;20306;-84
2023/01/28 04:37:26;;;;;;;8.43;7.65;;;2.80;99.90;;;;;;5085716;28;20238;-84
2023/01/28 04:39:53;;;;;;;9.45;8.05;;;2.80;99.90;;;;;;5086266;28;20234;-82
2023/01/28 04:42:19;;;;;;;8.23;7.18;;;2.80;99.90;;;;;;5082484;28;20242;-85
2023/01/28 04:44:46;;;;;;;11.63;8.23;;;2.80;99.90;;;;;;5095170;28;20195;-84
2023/01/28 04:47:13;;;;;;;8.68;7.75;;;2.80;99.90;;;;;;5084065;28;20271;-84
2023/01/28 04:49:40;;;;;;;8.07;7.28;;;2.70;99.90;;;;;;5089384;28;20214;-82
2023/01/28 04:52:07;;;;;;;11.20;8.90;;;2.70;99.90;;;;;;5084751;28;20202;-83
2023/01/28 04:54:35;;;;;;;12.30;9.15;;;2.80;99.90;;;;;;5075835;28;20239;-83
2023/01/28 04:57:02;;;;;;;11.98;10.30;;;2.80;99.90;;;;;;5088073;28;20230;-82
2023/01/28 04:59:29;;;;;;;11.88;10.45;;;2.80;99.90;;;;;;5087018;28;20222;-83
2023/01/28 05:01:56;;;;;;;10.48;8.07;;;2.70;99.90;;;;;;5076128;28;20191;-82
2023/01/28 05:04:23;;;;;;;14.30;9.95;;;2.70;99.90;;;;;;5085550;28;20215;-83
2023/01/28 05:06:50;;;;;;;12.48;8.60;;;2.70;99.90;;;;;;5078011;28;20258;-82
2023/01/28 05:09:17;;;;;;;13.80;9.68;;;2.80;99.90;;;;;;5074180;28;20206;-84
2023/01/28 05:11:45;;;;;;;10.40;9.40;;;2.70;99.90;;;;;;5069625;28;20231;-82
2023/01/28 05:14:12;;;;;;;12.02;9.68;;;2.70;99.90;;;;;;5071775;28;20234;-81
2023/01/28 05:16:39;;;;;;;12.40;9.63;;;2.60;99.90;;;;;;5076180;28;20246;-81
2023/01/28 05:19:06;;;;;;;10.55;9.45;;;2.40;99.90;;;;;;5082485;28;20207;-80
2023/01/28 05:21:33;;;;;;;17.73;11.30;;;2.30;99.90;;;;;;5070038;28;20211;-82
2023/01/28 05:24:00;;;;;;;10.77;8.00;;;2.20;99.90;;;;;;5065042;28;20200;-83
2023/01/28 05:26:26;;;;;;;13.45;9.88;;;2.20;99.90;;;;;;5076609;28;20234;-82
2023/01/28 05:28:55;;;;;;;21.58;11.90;;;2.20;99.90;;;;;;5076358;28;20207;-82
2023/01/28 05:31:21;;;;;;;12.30;11.07;;;2.20;99.90;;;;;;5064227;28;20283;-82
2023/01/28 05:33:48;;;;;;;12.65;11.35;;;2.20;99.90;;;;;;5077367;28;20290;-82
2023/01/28 05:36:15;;;;;;;13.25;11.63;;;2.20;99.90;;;;;;5071620;28;20381;-83
2023/01/28 05:38:42;;;;;;;12.40;10.82;;;2.30;99.90;;;;;;5057190;28;20231;-83
2023/01/28 05:41:09;;;;;;;16.45;14.07;;;2.20;99.90;;;;;;5052755;28;20208;-80
2023/01/28 05:43:36;;;;;;;21.77;13.43;;;2.30;99.90;;;;;;5068716;28;20210;-83
2023/01/28 05:46:04;;;;;;;26.45;15.85;;;2.30;99.90;;;;;;5059246;28;20286;-82
2023/01/28 05:48:31;;;;;;;18.52;13.48;;;2.30;99.90;;;;;;5072439;28;20565;-81
2023/01/28 05:50:58;;;;;;;17.45;14.48;;;2.30;99.90;;;;;;5066119;28;20355;-81
2023/01/28 05:53:25;;;;;;;17.23;13.90;;;2.30;99.90;;;;;;5062197;28;20680;-81
2023/01/28 05:55:53;;;;;;;14.77;12.73;;;2.30;99.90;;;;;;5075304;28;20317;-82
2023/01/28 05:58:20;;;;;;;17.73;13.60;;;2.30;99.90;;;;;;5070003;28;20519;-81
2023/01/28 06:00:47;;;;;;;16.85;13.48;;;2.20;99.90;;;;;;5057744;28;20204;-83
2023/01/28 06:03:15;;;;;;;18.15;13.95;;;2.20;99.90;;;;;;5068790;28;20199;-82
2023/01/28 06:05:42;;;;;;;19.40;14.48;;;2.20;99.90;;;;;;5066852;28;20287;-81
2023/01/28 06:08:09;;;;;;;22.90;15.02;;;2.20;99.90;;;;;;5059029;28;20236;-85
2023/01/28 06:10:36;;;;;;;27.52;14.90;;;2.10;99.90;;;;;;5072094;28;20301;-82
2023/01/28 06:13:03;;;;;;;18.77;15.25;;;2.10;99.90;;;;;;5060181;28;20298;-82
2023/01/28 06:15:30;;;;;;;21.83;16.88;;;2.10;99.90;;;;;;5062580;28;20274;-80
2023/01/28 06:17:57;;;;;;;20.90;16.55;;;2.00;99.90;;;;;;5076648;28;20238;-83
2023/01/28 06:20:25;;;;;;;22.80;16.27;;;1.90;99.90;;;;;;5084107;28;20203;-84
2023/01/28 06:22:53;;;;;;;17.13;14.63;;;1.80;99.90;;;;;;5077040;28;20262;-82
2023/01/28 06:25:20;;;;;;;24.00;16.77;;;1.80;99.90;;;;;;5074350;28;20210;-84
2023/01/28 06:27:47;;;;;;;20.52;16.23;;;1.70;99.90;;;;;;5074886;28;20226;-81
2023/01/28 06:30:14;;;;;;;24.30;16.98;;;1.70;99.90;;;;;;5065663;28;20223;-83
2023/01/28 06:32:41;;;;;;;20.38;17.20;;;1.60;99.90;;;;;;5094374;28;20183;-85
2023/01/28 06:35:08;;;;;;;21.42;16.23;;;1.70;99.90;;;;;;5075085;28;20243;-86
2023/01/28 06:37:38;;;;;;;19.35;15.85;;;1.70;99.90;;;;;;5088107;28;20258;-81
2023/01/28 06:40:06;;;;;;;23.45;17.27;;;1.60;99.90;;;;;;5073419;28;20261;-84
2023/01/28 06:42:33;;;;;;;22.60;17.05;;;1.50;99.90;;;;;;5060208;28;20204;-83
2023/01/28 06:44:59;;;;;;;30.38;18.10;;;1.40;99.90;;;;;;5066439;28;20680;-82
2023/01/28 06:47:26;;;;;;;24.65;18.95;;;1.40;99.90;;;;;;5074028;28;20223;-82
2023/01/28 06:49:53;;;;;;;27.35;20.25;;;1.40;99.90;;;;;;5064257;28;20235;-82
2023/01/28 06:52:20;;;;;;;24.63;18.10;;;1.30;99.90;;;;;;5073276;28;20279;-83
2023/01/28 06:54:48;;;;;;;25.60;17.38;;;1.20;99.90;;;;;;5077031;28;20655;-84
2023/01/28 06:57:15;;;;;;;27.70;19.45;;;1.10;99.90;;;;;;5058241;28;20579;-82
2023/01/28 06:59:42;;;;;;;24.40;18.25;;;1.00;99.90;;;;;;5076363;28;20202;-82
2023/01/28 07:02:10;;;;;;;24.98;17.25;;;1.00;99.90;;;;;;5064958;28;20226;-81
2023/01/28 07:04:37;;;;;;;27.98;19.38;;;1.00;99.90;;;;;;5064898;28;20206;-80
2023/01/28 07:07:04;;;;;;;25.55;18.17;;;1.00;99.90;;;;;;5068402;28;20227;-79
2023/01/28 07:09:31;;;;;;;25.77;17.92;;;1.00;99.90;;;;;;5057328;28;20808;-81
2023/01/28 07:12:04;;;;;;;27.83;21.80;;;1.10;99.90;;;;;;5077340;28;20523;-86
2023/01/28 07:14:30;;;;;;;33.10;20.08;;;1.10;99.90;;;;;;5064840;28;20475;-84
2023/01/28 07:16:57;;;;;;;28.85;19.40;;;1.10;99.90;;;;;;5074999;28;20252;-83
2023/01/28 07:19:24;;;;;;;28.60;19.55;;;1.00;99.90;;;;;;5069356;28;20198;-83
2023/01/28 07:21:51;;;;;;;31.40;20.33;;;1.10;99.90;;;;;;5063166;28;20218;-83
2023/01/28 07:24:18;;;;;;;28.20;18.60;;;1.10;99.90;;;;;;5077208;28;20267;-85
2023/01/28 07:26:48;;;;;;;30.02;20.55;;;1.10;99.90;;;;;;5052556;28;20227;-86
2023/01/28 07:29:18;;;;;;;30.05;19.55;;;1.20;99.90;;;;;;5067845;28;20205;-83
2023/01/28 07:31:45;;;;;;;27.08;18.80;;;1.10;99.90;;;;;;5067546;28;20239;-84
2023/01/28 07:34:12;;;;;;;25.42;19.55;;;1.10;99.90;;;;;;5074987;28;20633;-84
2023/01/28 07:36:39;;;;;;;29.05;20.02;;;1.20;99.90;;;;;;5058355;28;20286;-84
2023/01/28 07:39:07;;;;;;;26.08;17.75;;;1.20;99.90;;;;;;5072586;28;20268;-83
2023/01/28 07:41:34;;;;;;;25.10;19.13;;;1.20;99.90;;;;;;5069158;28;20223;-86
2023/01/28 07:44:01;;;;;;;32.47;19.30;;;1.30;99.90;;;;;;5073636;28;20294;-85
2023/01/28 07:46:34;;;;;;;27.20;19.75;;;1.30;99.90;;;;;;5057859;28;20242;-86
2023/01/28 07:49:31;;;;;;;28.80;19.08;;;1.60;99.90;;;;;;5049731;28;20219;-87
2023/01/28 07:52:08;;;;;;;29.95;19.10;;;1.50;99.90;;;;;;5063891;28;20213;-87
2023/01/28 07:54:35;;;;;;;24.88;18.88;;;1.60;99.90;;;;;;5063797;28;20275;-85
2023/01/28 07:57:05;;;;;;;24.42;18.58;;;1.50;99.90;;;;;;5057667;28;20252;-87
2023/01/28 07:59:31;;;;;;;30.60;22.40;;;1.60;99.90;;;;;;5065871;28;20210;-85
2023/01/28 08:02:00;;;;;;;32.38;21.83;;;1.50;99.90;;;;;;5057337;28;20204;-88
2023/01/28 08:04:39;;;;;;;28.70;18.70;;;1.80;99.90;;;;;;5074972;28;20202;-86
2023/01/28 08:07:06;;;;;;;31.02;20.85;;;1.70;99.90;;;;;;5077670;28;20230;-88
2023/01/28 08:09:33;;;;;;;26.33;17.52;;;1.60;99.90;;;;;;5060067;28;20210;-89
2023/01/28 08:12:03;;;;;;;27.55;20.17;;;1.60;99.90;;;;;;5075351;28;20195;-89
2023/01/28 08:14:30;;;;;;;25.48;19.15;;;1.60;99.90;;;;;;5072678;28;20208;-90
2023/01/28 08:16:58;;;;;;;26.10;17.95;;;1.60;99.90;;;;;;5059339;28;20223;-84
2023/01/28 08:19:26;;;;;;;25.02;18.30;;;1.80;99.90;;;;;;5084347;28;20207;-87
2023/01/28 08:21:53;;;;;;;23.67;17.83;;;2.00;99.90;;;;;;5077125;28;20211;-85
2023/01/28 08:24:20;;;;;;;22.85;17.85;;;2.40;99.90;;;;;;5082473;28;20230;-86
2023/01/28 08:26:48;;;;;;;20.88;16.90;;;3.00;99.90;;;;;;5056480;28;20255;-86
2023/01/28 08:29:15;;;;;;;23.73;18.00;;;4.10;99.90;;;;;;5046131;28;20265;-87
2023/01/28 08:31:42;;;;;;;24.52;18.52;;;4.90;99.90;;;;;;5076176;28;20204;-86
2023/01/28 08:34:09;;;;;;;24.80;17.58;;;4.30;99.90;;;;;;5066916;28;20196;-84
2023/01/28 08:36:37;;;;;;;25.15;19.33;;;3.80;99.90;;;;;;5059268;28;20227;-85
2023/01/28 08:39:04;;;;;;;22.02;16.23;;;3.60;99.90;;;;;;5071258;28;20648;-86
2023/01/28 08:41:31;;;;;;;21.63;17.20;;;3.60;99.90;;;;;;5064092;28;20196;-87
2023/01/28 08:43:59;;;;;;;23.30;17.65;;;3.60;99.90;;;;;;5072318;28;20190;-86
2023/01/28 08:46:26;;;;;;;22.73;16.65;;;4.10;99.90;;;;;;5066515;28;20768;-85
2023/01/28 08:48:53;;;;;;;19.75;17.27;;;4.40;99.90;;;;;;5065360;28;20755;-83
2023/01/28 08:51:20;;;;;;;19.17;14.50;;;4.10;99.90;;;;;;5068976;28;20196;-83
2023/01/28 08:53:48;;;;;;;21.13;17.75;;;4.90;99.90;;;;;;5052749;28;20231;-84
2023/01/28 08:56:15;;;;;;;22.48;15.50;;;5.70;99.90;;;;;;5065884;28;20273;-83
2023/01/28 08:58:46;;;;;;;24.23;17.35;;;6.60;99.90;;;;;;5057067;28;20228;-86
2023/01/28 09:01:13;;;;;;;19.85;15.88;;;7.50;99.90;;;;;;5075094;28;20275;-86
2023/01/28 09:03:39;;;;;;;20.08;17.15;;;8.30;96.40;;;;;;5081755;28;20254;-86
2023/01/28 09:06:07;;;;;;;19.10;17.00;;;8.90;94.40;;;;;;5075703;28;20280;-87
2023/01/28 09:08:34;;;;;;;21.50;16.80;;;9.60;93.40;;;;;;5071072;28;20210;-85
2023/01/28 09:11:02;;;;;;;21.83;18.75;;;10.20;91.40;;;;;;5081341;28;20227;-84
2023/01/28 09:13:30;;;;;;;22.17;17.27;;;10.50;89.50;;;;;;5070854;28;20280;-85
2023/01/28 09:15:57;;;;;;;19.25;15.60;;;10.80;87.40;;;;;;5072675;28;20194;-85
2023/01/28 09:18:24;;;;;;;19.10;16.85;;;10.90;86.30;;;;;;5083462;28;20215;-85
2023/01/28 09:20:50;;;;;;;19.40;16.00;;;11.00;86.40;;;;;;5088503;28;20202;-85
2023/01/28 09:23:17;;;;;;;16.85;15.05;;;10.90;85.10;;;;;;5086421;28;20214;-85
2023/01/28 09:25:44;;;;;;;21.73;18.67;;;10.30;84.60;;;;;;5080038;28;20218;-84
2023/01/28 09:28:12;;;;;;;21.13;16.88;;;10.30;85.50;;;;;;5086312;28;20230;-85
2023/01/28 09:30:39;;;;;;;20.67;17.98;;;10.30;86.50;;;;;;5076532;28;20179;-85
2023/01/28 09:33:07;;;;;;;21.98;19.38;;;10.70;86.60;;;;;;5079955;28;20206;-84
2023/01/28 09:35:35;;;;;;;22.30;18.23;;;10.20;85.00;;;;;;5084778;28;20240;-85
2023/01/28 09:38:02;;;;;;;20.92;17.85;;;10.30;85.00;;;;;;5069200;28;20261;-85
2023/01/28 09:40:34;;;;;;;19.30;17.20;;;9.80;85.40;;;;;;5068526;28;20258;-84
2023/01/28 09:43:26;;;;;;;20.48;18.02;;;9.60;86.90;;;;;;5070003;28;20718;-84
2023/01/28 09:45:55;;;;;;;20.52;16.27;;;9.20;87.00;;;;;;5078321;28;20225;-85
2023/01/28 09:48:29;;;;;;;21.90;17.42;;;7.70;90.10;;;;;;5068887;28;20310;-86
2023/01/28 09:50:56;;;;;;;23.42;18.50;;;7.10;92.20;;;;;;5079639;28;20207;-86
2023/01/28 09:53:28;;;;;;;24.70;18.67;;;6.10;93.40;;;;;;5061103;28;20213;-87
2023/01/28 09:56:00;;;;;;;20.05;16.05;;;6.00;95.10;;;;;;5070535;28;20217;-85
2023/01/28 09:58:28;;;;;;;22.58;17.80;;;5.70;96.20;;;;;;5059143;28;20231;-86
2023/01/28 10:01:01;;;;;;;20.80;16.85;;;5.10;97.30;;;;;;5076279;28;20204;-86
2023/01/28 10:03:47;;;;;;;23.10;17.48;;;4.70;99.70;;;;;;5070923;28;20206;-85
2023/01/28 10:06:30;;;;;;;20.17;14.98;;;4.50;99.90;;;;;;5067931;28;20247;-85
2023/01/28 10:09:11;;;;;;;20.13;15.60;;;4.50;99.90;;;;;;5072714;28;20594;-85
2023/01/28 10:12:02;;;;;;;22.55;15.82;;;4.60;99.90;;;;;;5064801;28;20733;-85
2023/01/28 10:14:45;;;;;;;23.73;15.32;;;4.60;99.90;;;;;;5073023;28;20206;-84
2023/01/28 10:17:17;;;;;;;21.38;15.30;;;4.50;99.90;;;;;;5072908;28;20247;-85
2023/01/28 10:19:47;;;;;;;21.83;15.57;;;4.40;99.90;;;;;;5068852;28;20199;-86
2023/01/28 10:22:18;;;;;;;27.50;16.15;;;4.60;99.90;;;;;;5068288;28;20195;-86
2023/01/28 10:24:50;;;;;;;20.02;14.50;;;4.70;99.90;;;;;;5056322;28;20236;-85
2023/01/28 10:27:20;;;;;;;18.08;13.85;;;5.00;99.90;;;;;;5064813;28;20226;-86
2023/01/28 10:29:50;;;;;;;21.10;15.55;;;4.60;99.90;;;;;;5058277;28;20261;-85
2023/01/28 10:32:23;;;;;;;20.38;15.43;;;4.70;99.90;;;;;;5080687;28;20234;-85
2023/01/28 10:34:51;;;;;;;20.45;15.07;;;4.90;99.90;;;;;;5073931;28;20629;-85
2023/01/28 10:37:18;;;;;;;20.73;14.90;;;4.80;99.90;;;;;;5069514;28;20262;-87
2023/01/28 10:39:46;;;;;;;19.38;13.18;;;4.90;99.90;;;;;;5079003;28;20207;-86
2023/01/28 10:42:27;;;;;;;20.80;14.85;;;4.70;99.90;;;;;;5072384;28;20208;-85
2023/01/28 10:44:59;;;;;;;18.95;13.95;;;4.50;99.90;;;;;;5068308;28;20203;-85
2023/01/28 10:47:33;;;;;;;20.02;12.82;;;4.60;99.90;;;;;;5062748;28;20294;-86
2023/01/28 10:50:02;;;;;;;15.50;13.45;;;5.30;99.90;;;;;;5053237;28;20264;-86
2023/01/28 10:52:30;;;;;;;18.83;13.70;;;5.90;99.90;;;;;;5069901;28;20260;-85
2023/01/28 10:55:01;;;;;;;20.80;14.02;;;6.50;99.40;;;;;;5069135;28;20202;-86
2023/01/28 10:57:28;;;;;;;20.33;13.52;;;6.80;99.10;;;;;;5070297;28;20218;-85
2023/01/28 10:59:56;;;;;;;15.52;13.15;;;6.70;96.70;;;;;;5072375;28;20214;-86
2023/01/28 11:02:35;;;;;;;19.05;14.55;;;7.00;97.40;;;;;;5067329;28;20226;-84
2023/01/28 11:05:14;;;;;;;19.17;14.10;;;6.90;96.50;;;;;;5075407;28;20202;-86
2023/01/28 11:07:43;;;;;;;18.88;14.45;;;6.70;97.40;;;;;;5068564;28;20250;-85
2023/01/28 11:10:26;;;;;;;20.27;13.55;;;6.70;98.00;;;;;;5068334;28;20592;-86
2023/01/28 11:12:57;;;;;;;19.30;14.60;;;6.40;97.60;;;;;;5051753;28;20244;-86
2023/01/28 11:15:26;;;;;;;22.23;13.85;;;6.40;98.20;;;;;;5075470;28;20199;-86
2023/01/28 11:17:57;;;;;;;21.35;13.88;;;5.80;97.90;;;;;;5070918;28;20240;-85
2023/01/28 11:20:28;;;;;;;21.83;13.57;;;5.80;99.20;;;;;;5088497;28;20213;-84
2023/01/28 11:22:56;;;;;;;21.33;14.80;;;5.50;98.50;;;;;;5078520;28;20304;-86
2023/01/28 11:25:29;;;;;;;15.82;12.40;;;5.50;99.60;;;;;;5073209;28;20237;-86
2023/01/28 11:27:58;;;;;;;22.48;14.65;;;5.20;99.70;;;;;;5054615;28;20702;-86
2023/01/28 11:30:29;;;;;;;17.77;14.02;;;5.10;99.90;;;;;;5078455;28;20220;-86
2023/01/28 11:32:59;;;;;;;16.85;11.85;;;5.30;99.90;;;;;;5068903;28;20258;-85
2023/01/28 11:35:29;;;;;;;23.48;15.32;;;5.60;99.90;;;;;;5071624;28;20204;-86
2023/01/28 11:37:56;;;;;;;18.95;14.07;;;6.00;99.90;;;;;;5077531;28;20455;-86
2023/01/28 11:40:23;;;;;;;17.55;13.05;;;5.70;98.60;;;;;;5082419;28;20206;-85
2023/01/28 11:42:51;;;;;;;18.23;14.70;;;6.00;99.30;;;;;;5074929;28;20208;-86
2023/01/28 11:45:22;;;;;;;20.10;14.70;;;6.10;99.40;;;;;;5085717;28;20232;-87
2023/01/28 11:48:12;;;;;;;18.67;13.30;;;6.00;99.10;;;;;;5077059;28;20304;-86
2023/01/28 11:50:47;;;;;;;18.30;13.52;;;6.00;99.10;;;;;;5056705;28;20273;-86
2023/01/28 11:53:32;;;;;;;16.02;12.57;;;6.10;99.20;;;;;;5083195;28;20209;-86
2023/01/28 11:56:10;;;;;;;21.17;13.73;;;5.90;99.20;;;;;;5058835;28;20203;-86
2023/01/28 11:58:46;;;;;;;20.13;12.35;;;5.80;99.90;;;;;;5064637;28;20202;-85
2023/01/28 12:01:22;;;;;;;18.70;14.13;;;5.80;99.30;;;;;;5075653;28;20274;-87
2023/01/28 12:04:20;;;;;;;19.35;14.05;;;6.10;99.90;;;;;;5083936;28;20210;-86
2023/01/28 12:07:01;;;;;;;16.05;12.57;;;6.60;99.90;;;;;;5077591;28;20242;-85
2023/01/28 12:09:35;;;;;;;22.00;13.23;;;6.50;98.90;;;;;;5064645;28;20258;-85
2023/01/28 12:12:16;;;;;;;19.20;14.25;;;6.60;99.50;;;;;;5077145;28;20202;-87
2023/01/28 12:15:17;;;;;;;17.05;12.25;;;6.20;98.50;;;;;;5077522;28;20205;-85
2023/01/28 12:17:57;;;;;;;18.65;13.73;;;5.70;99.40;;;;;;5050932;28;20362;-86
2023/01/28 12:20:31;;;;;;;19.58;12.35;;;5.50;99.90;;;;;;5063301;28;20242;-85
2023/01/28 12:23:20;;;;;;;24.80;14.20;;;5.30;99.90;;;;;;5071584;28;20235;-86
2023/01/28 12:26:13;;;;;;;19.40;12.93;;;5.20;99.90;;;;;;5078841;28;20231;-84
2023/01/28 12:29:03;;;;;;;18.08;11.65;;;5.30;99.90;;;;;;5046822;28;20239;-84
2023/01/28 12:31:49;;;;;;;18.60;12.30;;;5.10;99.90;;;;;;5069968;28;20231;-85
2023/01/28 12:34:40;;;;;;;19.42;12.73;;;5.30;99.90;;;;;;5070159;28;20273;-86
2023/01/28 12:37:15;;;;;;;17.15;11.40;;;5.40;99.90;;;;;;5065507;28;20277;-85
2023/01/28 12:40:02;;;;;;;18.67;11.55;;;5.40;99.90;;;;;;5088067;28;20637;-85
2023/01/28 12:42:36;;;;;;;18.83;12.20;;;5.60;99.90;;;;;;5061520;28;20226;-86
2023/01/28 12:45:15;;;;;;;19.17;12.43;;;5.50;99.90;;;;;;5080340;28;20208;-86
2023/01/28 12:47:45;;;;;;;14.20;10.05;;;5.40;99.90;;;;;;5083712;28;20252;-85
2023/01/28 12:50:17;;;;;;;18.30;11.10;;;5.10;99.90;;;;;;5090002;28;20195;-86
2023/01/28 12:52:49;;;;;;;15.05;11.23;;;5.10;99.90;;;;;;5077885;28;20180;-86
2023/01/28 12:55:20;;;;;;;17.95;12.25;;;5.00;99.90;;;;;;5080698;28;20223;-86
2023/01/28 12:57:48;;;;;;;18.25;13.40;;;5.10;99.90;;;;;;5076817;28;20229;-86
2023/01/28 13:00:29;;;;;;;20.40;14.30;;;5.30;99.90;;;;;;5062418;28;20194;-86
2023/01/28 13:03:06;;;;;;;19.00;14.52;;;5.50;99.90;;;;;;5076951;28;20198;-86
2023/01/28 13:05:38;;;;;;;22.88;13.63;;;5.70;99.90;;;;;;5085985;28;20197;-86
2023/01/28 13:08:17;;;;;;;18.90;12.20;;;5.80;99.90;;;;;;5087621;28;20205;-86
2023/01/28 13:10:46;;;;;;;15.57;11.27;;;5.60;99.90;;;;;;5080267;28;20192;-85
2023/01/28 13:13:18;;;;;;;16.83;12.10;;;5.40;99.90;;;;;;5073822;28;20192;-87
2023/01/28 13:15:46;;;;;;;22.17;14.55;;;5.20;99.90;;;;;;5068888;28;20228;-85
2023/01/28 13:18:31;;;;;;;20.92;12.88;;;5.10;99.90;;;;;;5080338;28;20258;-85
2023/01/28 13:20:59;;;;;;;22.83;13.13;;;5.00;99.90;;;;;;5076289;28;20212;-86
2023/01/28 13:23:39;;;;;;;24.10;13.43;;;5.00;99.90;;;;;;5081145;28;20240;-86
2023/01/28 13:26:26;;;;;;;20.77;12.63;;;4.90;99.90;;;;;;5069891;28;20276;-86
2023/01/28 13:28:54;;;;;;;23.90;15.25;;;4.90;99.90;;;;;;5062989;28;20287;-87